createdAt,value
2018-05-07T00:01:55.897Z,2.20
2018-05-07T00:04:29.647Z,2.20
2018-05-07T00:07:04.291Z,2.20
2018-05-07T00:09:38.428Z,2.13
2018-05-07T00:12:13.931Z,2.47
2018-05-07T00:14:47.844Z,2.43
2018-05-07T00:17:21.843Z,2.30
2018-05-07T00:19:57.030Z,2.30
2018-05-07T00:22:30.876Z,2.10
2018-05-07T00:25:05.632Z,2.47
2018-05-07T00:27:39.326Z,2.33
2018-05-07T00:30:13.855Z,2.40
2018-05-07T00:32:48.221Z,2.73
2018-05-07T00:35:22.325Z,2.73
2018-05-07T00:37:57.384Z,2.30
2018-05-07T00:40:32.008Z,2.20
2018-05-07T00:43:07.051Z,2.23
2018-05-07T00:45:40.637Z,2.30
2018-05-07T00:48:14.714Z,1.93
2018-05-07T00:50:49.079Z,2.30
2018-05-07T00:53:23.528Z,2.40
2018-05-07T00:55:57.639Z,2.33
2018-05-07T00:58:32.139Z,2.47
2018-05-07T01:01:07.215Z,2.53
2018-05-07T01:03:41.610Z,2.57
2018-05-07T01:06:16.206Z,2.27
2018-05-07T01:08:49.838Z,2.20
2018-05-07T01:11:24.127Z,2.30
2018-05-07T01:13:58.338Z,2.20
2018-05-07T01:16:32.648Z,2.40
2018-05-07T01:19:06.987Z,2.20
2018-05-07T01:21:40.798Z,2.53
2018-05-07T01:24:15.710Z,2.60
2018-05-07T01:26:50.243Z,2.40
2018-05-07T01:29:24.987Z,2.40
2018-05-07T01:31:59.173Z,2.23
2018-05-07T01:34:33.181Z,2.30
2018-05-07T01:37:06.993Z,2.30
2018-05-07T01:39:41.458Z,2.20
2018-05-07T01:42:15.777Z,2.30
2018-05-07T01:44:51.694Z,2.40
2018-05-07T01:47:26.806Z,2.53
2018-05-07T01:50:00.431Z,2.50
2018-05-07T01:52:35.032Z,2.27
2018-05-07T01:55:09.457Z,2.23
2018-05-07T01:57:43.671Z,2.17
2018-05-07T02:00:17.852Z,2.50
2018-05-07T02:02:52.712Z,2.17
2018-05-07T02:05:26.717Z,2.57
2018-05-07T02:08:01.038Z,2.27
2018-05-07T02:10:34.862Z,2.23
2018-05-07T02:13:10.992Z,2.33
2018-05-07T02:15:46.949Z,2.60
2018-05-07T02:18:20.647Z,2.50
2018-05-07T02:20:55.183Z,2.50
2018-05-07T02:23:29.091Z,2.63
2018-05-07T02:26:02.935Z,2.40
2018-05-07T02:28:37.762Z,2.70
2018-05-07T02:31:11.832Z,2.43
2018-05-07T02:33:46.006Z,2.40
2018-05-07T02:36:19.741Z,2.50
2018-05-07T02:38:53.623Z,2.37
2018-05-07T02:41:27.852Z,2.70
2018-05-07T02:44:01.477Z,2.57
2018-05-07T02:46:36.190Z,2.50
2018-05-07T02:49:10.821Z,2.70
2018-05-07T02:51:45.234Z,2.23
2018-05-07T02:54:19.346Z,2.60
2018-05-07T02:56:54.374Z,2.63
2018-05-07T02:59:28.927Z,2.40
2018-05-07T03:02:03.730Z,2.80
2018-05-07T03:04:37.967Z,2.63
2018-05-07T03:07:12.123Z,2.50
2018-05-07T03:09:45.987Z,2.50
2018-05-07T03:12:19.813Z,2.47
2018-05-07T03:14:55.407Z,2.43
2018-05-07T03:17:29.338Z,2.73
2018-05-07T03:20:03.015Z,2.30
2018-05-07T03:22:37.655Z,2.23
2018-05-07T03:25:11.864Z,2.60
2018-05-07T03:27:46.793Z,2.60
2018-05-07T03:30:21.911Z,2.50
2018-05-07T03:32:56.872Z,2.30
2018-05-07T03:35:31.890Z,2.33
2018-05-07T03:38:06.021Z,2.47
2018-05-07T03:40:39.911Z,2.43
2018-05-07T03:43:13.709Z,2.27
2018-05-07T03:45:48.159Z,2.33
2018-05-07T03:48:22.857Z,2.30
2018-05-07T03:50:57.208Z,2.40
2018-05-07T03:53:32.135Z,2.87
2018-05-07T03:56:06.447Z,2.97
2018-05-07T03:58:40.755Z,2.50
2018-05-07T04:01:14.435Z,2.80
2018-05-07T04:03:49.019Z,2.60
2018-05-07T04:06:22.697Z,2.60
2018-05-07T04:08:57.072Z,2.30
2018-05-07T04:11:31.715Z,2.70
2018-05-07T04:14:05.494Z,2.50
2018-05-07T04:16:51.198Z,2.57
2018-05-07T04:19:36.754Z,2.53
2018-05-07T04:22:22.548Z,2.60
2018-05-07T04:24:57.150Z,2.57
2018-05-07T04:27:31.304Z,2.50
2018-05-07T04:30:06.009Z,2.70
2018-05-07T04:32:40.667Z,2.80
2018-05-07T04:35:15.799Z,2.50
2018-05-07T04:37:49.799Z,2.60
2018-05-07T04:40:24.212Z,2.93
2018-05-07T04:42:59.145Z,2.67
2018-05-07T04:45:33.763Z,2.77
2018-05-07T04:48:08.419Z,2.70
2018-05-07T04:50:42.916Z,2.93
2018-05-07T04:53:16.714Z,2.20
2018-05-07T04:55:50.639Z,2.60
2018-05-07T04:58:26.202Z,2.80
2018-05-07T05:01:00.581Z,2.77
2018-05-07T05:03:35.118Z,2.77
2018-05-07T05:06:09.435Z,2.70
2018-05-07T05:08:45.451Z,2.83
2018-05-07T05:11:19.091Z,2.70
2018-05-07T05:13:52.873Z,2.90
2018-05-07T05:16:27.522Z,2.43
2018-05-07T05:19:02.053Z,2.80
2018-05-07T05:21:36.786Z,2.70
2018-05-07T05:24:10.518Z,2.50
2018-05-07T05:26:44.025Z,2.70
2018-05-07T05:29:17.656Z,2.70
2018-05-07T05:31:51.165Z,2.77
2018-05-07T05:34:25.698Z,2.70
2018-05-07T05:36:59.358Z,2.60
2018-05-07T05:39:32.816Z,2.87
2018-05-07T05:42:06.434Z,2.70
2018-05-07T05:44:40.679Z,2.60
2018-05-07T05:47:14.716Z,2.77
2018-05-07T05:49:48.411Z,2.50
2018-05-07T05:52:22.753Z,2.73
2018-05-07T05:54:57.631Z,2.87
2018-05-07T05:57:32.167Z,2.70
2018-05-07T06:00:06.511Z,3.17
2018-05-07T06:02:40.902Z,3.10
2018-05-07T06:05:14.781Z,2.77
2018-05-07T06:07:48.697Z,2.83
2018-05-07T06:10:22.439Z,2.90
2018-05-07T06:12:56.153Z,2.93
2018-05-07T06:15:30.835Z,2.83
2018-05-07T06:18:05.299Z,3.10
2018-05-07T06:20:40.500Z,2.70
2018-05-07T06:23:15.870Z,3.20
2018-05-07T06:25:50.401Z,3.10
2018-05-07T06:28:24.302Z,2.83
2018-05-07T06:30:58.834Z,2.90
2018-05-07T06:33:33.262Z,3.03
2018-05-07T06:36:07.860Z,2.80
2018-05-07T06:38:42.790Z,3.00
2018-05-07T06:41:16.719Z,2.90
2018-05-07T06:43:50.495Z,2.87
2018-05-07T06:46:25.000Z,2.73
2018-05-07T06:48:58.867Z,3.00
2018-05-07T06:51:33.607Z,2.67
2018-05-07T06:54:08.260Z,3.17
2018-05-07T06:56:42.093Z,3.10
2018-05-07T06:59:16.074Z,2.73
2018-05-07T07:01:50.759Z,2.90
2018-05-07T07:04:24.435Z,2.90
2018-05-07T07:06:59.027Z,3.10
2018-05-07T07:09:32.626Z,3.00
2018-05-07T07:12:07.075Z,3.00
2018-05-07T07:14:41.693Z,3.00
2018-05-07T07:17:16.067Z,2.90
2018-05-07T07:19:50.494Z,3.30
2018-05-07T07:22:25.008Z,3.00
2018-05-07T07:24:58.770Z,2.90
2018-05-07T07:27:32.456Z,3.00
2018-05-07T07:30:07.031Z,3.10
2018-05-07T07:32:41.655Z,3.13
2018-05-07T07:35:15.705Z,2.87
2018-05-07T07:37:50.084Z,3.20
2018-05-07T07:40:23.613Z,2.73
2018-05-07T07:42:57.390Z,2.90
2018-05-07T07:45:31.867Z,3.00
2018-05-07T07:48:05.436Z,2.60
2018-05-07T07:50:39.956Z,3.00
2018-05-07T07:53:14.453Z,2.53
2018-05-07T07:55:48.110Z,3.37
2018-05-07T07:58:22.608Z,2.73
2018-05-07T08:00:57.042Z,3.00
2018-05-07T08:03:31.000Z,2.90
2018-05-07T08:06:04.646Z,2.70
2018-05-07T08:08:38.392Z,2.80
2018-05-07T08:11:12.750Z,2.80
2018-05-07T08:13:46.936Z,3.13
2018-05-07T08:16:20.776Z,2.93
2018-05-07T08:18:55.200Z,3.20
2018-05-07T08:21:30.299Z,3.13
2018-05-07T08:24:03.957Z,2.73
2018-05-07T08:26:37.549Z,2.73
2018-05-07T08:29:11.616Z,2.90
2018-05-07T08:31:45.469Z,3.00
2018-05-07T08:34:19.343Z,2.60
2018-05-07T08:36:54.099Z,2.93
2018-05-07T08:39:27.899Z,3.00
2018-05-07T08:42:01.583Z,3.00
2018-05-07T08:44:36.015Z,2.40
2018-05-07T08:47:09.862Z,2.73
2018-05-07T08:49:44.629Z,2.90
2018-05-07T08:52:19.479Z,2.80
2018-05-07T08:54:54.079Z,2.97
2018-05-07T08:57:28.516Z,2.97
2018-05-07T09:00:02.935Z,2.87
2018-05-07T09:02:37.126Z,2.30
2018-05-07T09:05:10.838Z,2.50
2018-05-07T09:07:45.689Z,2.80
2018-05-07T09:10:19.599Z,2.50
2018-05-07T09:12:54.321Z,2.50
2018-05-07T09:15:28.298Z,2.50
2018-05-07T09:18:02.119Z,2.70
2018-05-07T09:20:35.933Z,2.63
2018-05-07T09:23:10.883Z,2.33
2018-05-07T09:25:45.493Z,2.40
2018-05-07T09:28:19.398Z,2.57
2018-05-07T09:30:54.075Z,2.63
2018-05-07T09:33:28.446Z,2.40
2018-05-07T09:36:03.325Z,2.30
2018-05-07T09:38:37.849Z,2.60
2018-05-07T09:41:11.483Z,2.40
2018-05-07T09:43:46.019Z,2.63
2018-05-07T09:46:19.727Z,2.70
2018-05-07T09:48:55.225Z,2.17
2018-05-07T09:51:29.775Z,2.50
2018-05-07T09:54:04.286Z,2.27
2018-05-07T09:56:50.144Z,2.27
2018-05-07T09:59:23.985Z,2.37
2018-05-07T10:01:58.581Z,2.37
2018-05-07T10:04:32.326Z,2.40
2018-05-07T10:07:06.975Z,2.40
2018-05-07T10:09:40.657Z,1.97
2018-05-07T10:12:15.265Z,2.33
2018-05-07T10:14:49.420Z,2.17
2018-05-07T10:17:23.978Z,2.03
2018-05-07T10:19:57.693Z,2.33
2018-05-07T10:22:31.420Z,2.17
2018-05-07T10:25:05.609Z,2.33
2018-05-07T10:27:39.570Z,2.27
2018-05-07T10:30:13.226Z,2.40
2018-05-07T10:32:46.979Z,2.40
2018-05-07T10:35:20.737Z,2.20
2018-05-07T10:37:55.122Z,2.20
2018-05-07T10:40:28.866Z,1.90
2018-05-07T10:43:03.148Z,2.10
2018-05-07T10:45:36.982Z,2.10
2018-05-07T10:48:11.685Z,2.00
2018-05-07T10:50:46.290Z,1.90
2018-05-07T10:53:20.944Z,2.00
2018-05-07T10:55:54.982Z,2.10
2018-05-07T10:58:29.499Z,2.00
2018-05-07T11:01:03.811Z,1.80
2018-05-07T11:03:38.120Z,2.20
2018-05-07T11:06:12.070Z,2.30
2018-05-07T11:08:45.840Z,1.80
2018-05-07T11:11:20.557Z,2.00
2018-05-07T11:13:55.278Z,1.80
2018-05-07T11:16:29.507Z,2.00
2018-05-07T11:19:03.300Z,2.07
2018-05-07T11:21:37.393Z,2.00
2018-05-07T11:24:12.013Z,1.90
2018-05-07T11:26:45.853Z,2.10
2018-05-07T11:29:20.722Z,2.10
2018-05-07T11:31:54.579Z,2.03
2018-05-07T11:34:28.586Z,2.03
2018-05-07T11:37:02.501Z,1.80
2018-05-07T11:39:36.502Z,1.80
2018-05-07T11:42:11.659Z,2.00
2018-05-07T11:44:45.723Z,1.90
2018-05-07T11:47:19.770Z,1.97
2018-05-07T11:49:54.448Z,1.80
2018-05-07T11:52:29.280Z,1.90
2018-05-07T11:55:03.772Z,2.13
2018-05-07T11:57:37.535Z,2.10
2018-05-07T12:00:11.846Z,1.87
2018-05-07T12:02:45.837Z,2.00
2018-05-07T12:05:20.616Z,1.80
2018-05-07T12:07:55.491Z,1.87
2018-05-07T12:10:30.343Z,1.90
2018-05-07T12:13:05.286Z,1.80
2018-05-07T12:15:39.056Z,1.90
2018-05-07T12:18:12.870Z,1.97
2018-05-07T12:20:46.574Z,2.10
2018-05-07T12:23:21.175Z,1.93
2018-05-07T12:25:55.360Z,2.00
2018-05-07T12:28:30.259Z,2.00
2018-05-07T12:31:03.967Z,1.90
2018-05-07T12:33:38.188Z,2.10
2018-05-07T12:36:11.952Z,1.73
2018-05-07T12:38:45.568Z,2.40
2018-05-07T12:41:19.328Z,1.80
2018-05-07T12:43:53.170Z,2.10
2018-05-07T12:46:26.774Z,1.80
2018-05-07T12:49:00.739Z,2.37
2018-05-07T12:51:34.388Z,2.20
2018-05-07T12:54:08.492Z,2.40
2018-05-07T12:56:42.273Z,2.03
2018-05-07T12:59:16.201Z,2.20
2018-05-07T13:01:50.006Z,2.00
2018-05-07T13:04:23.887Z,2.10
2018-05-07T13:06:57.760Z,2.20
2018-05-07T13:09:31.437Z,1.90
2018-05-07T13:12:05.349Z,2.00
2018-05-07T13:14:39.918Z,2.43
2018-05-07T13:17:14.582Z,1.90
2018-05-07T13:19:48.238Z,2.00
2018-05-07T13:22:21.954Z,2.10
2018-05-07T13:24:56.897Z,2.10
2018-05-07T13:27:31.477Z,1.90
2018-05-07T13:30:05.235Z,2.20
2018-05-07T13:32:39.738Z,1.87
2018-05-07T13:35:14.022Z,2.10
2018-05-07T13:37:47.886Z,2.20
2018-05-07T13:40:21.797Z,2.40
2018-05-07T13:42:55.387Z,1.97
2018-05-07T13:45:29.862Z,2.00
2018-05-07T13:48:03.532Z,1.90
2018-05-07T13:50:37.074Z,2.13
2018-05-07T13:53:11.908Z,2.37
2018-05-07T13:55:45.554Z,2.37
2018-05-07T13:58:19.686Z,2.40
2018-05-07T14:00:53.550Z,2.47
2018-05-07T14:03:28.038Z,2.10
2018-05-07T14:06:02.595Z,2.00
2018-05-07T14:08:37.425Z,2.40
2018-05-07T14:11:11.313Z,2.30
2018-05-07T14:13:45.055Z,2.30
2018-05-07T14:16:20.428Z,2.10
2018-05-07T14:18:54.475Z,2.40
2018-05-07T14:21:29.563Z,2.10
2018-05-07T14:24:03.898Z,2.47
2018-05-07T14:26:37.486Z,2.20
2018-05-07T14:29:10.994Z,2.20
2018-05-07T14:31:44.582Z,2.40
2018-05-07T14:34:18.931Z,2.13
2018-05-07T14:36:53.612Z,2.30
2018-05-07T14:39:28.516Z,2.40
2018-05-07T14:42:02.992Z,2.20
2018-05-07T14:44:37.497Z,2.50
2018-05-07T14:47:12.019Z,2.40
2018-05-07T14:49:45.901Z,2.33
2018-05-07T14:52:20.599Z,2.47
2018-05-07T14:54:54.316Z,2.30
2018-05-07T14:57:29.120Z,2.43
2018-05-07T15:00:03.457Z,2.50
2018-05-07T15:02:38.084Z,2.30
2018-05-07T15:05:11.806Z,2.60
2018-05-07T15:07:46.204Z,2.40
2018-05-07T15:10:20.016Z,2.60
2018-05-07T15:12:53.578Z,2.60
2018-05-07T15:15:27.213Z,2.43
2018-05-07T15:18:01.621Z,2.50
2018-05-07T15:20:35.398Z,2.37
2018-05-07T15:23:09.091Z,2.60
2018-05-07T15:25:43.383Z,2.90
2018-05-07T15:28:17.734Z,2.70
2018-05-07T15:30:52.405Z,2.80
2018-05-07T15:33:27.483Z,2.37
2018-05-07T15:36:01.932Z,2.50
2018-05-07T15:38:35.806Z,2.70
2018-05-07T15:41:09.644Z,2.60
2018-05-07T15:43:43.535Z,2.60
2018-05-07T15:46:17.123Z,2.60
2018-05-07T15:48:50.769Z,2.40
2018-05-07T15:51:25.366Z,2.60
2018-05-07T15:53:59.992Z,2.63
2018-05-07T15:56:34.487Z,2.90
2018-05-07T15:59:08.386Z,2.77
2018-05-07T16:01:41.978Z,2.60
2018-05-07T16:04:15.466Z,2.60
2018-05-07T16:06:49.736Z,2.50
2018-05-07T16:09:24.209Z,2.67
2018-05-07T16:11:58.337Z,2.60
2018-05-07T16:14:32.213Z,2.70
2018-05-07T16:17:06.574Z,3.10
2018-05-07T16:19:40.451Z,2.50
2018-05-07T16:22:14.978Z,2.87
2018-05-07T16:24:48.579Z,2.57
2018-05-07T16:27:23.057Z,2.60
2018-05-07T16:29:56.718Z,2.50
2018-05-07T16:32:30.772Z,2.60
2018-05-07T16:35:04.382Z,2.63
2018-05-07T16:37:38.228Z,2.90
2018-05-07T16:40:12.715Z,2.50
2018-05-07T16:42:47.171Z,2.43
2018-05-07T16:45:22.494Z,2.43
2018-05-07T16:47:56.222Z,2.67
2018-05-07T16:50:30.598Z,2.83
2018-05-07T16:53:05.138Z,2.97
2018-05-07T16:55:38.859Z,2.60
2018-05-07T16:58:12.459Z,2.80
2018-05-07T17:00:46.891Z,2.73
2018-05-07T17:03:21.383Z,2.80
2018-05-07T17:05:55.323Z,2.60
2018-05-07T17:08:29.040Z,3.13
2018-05-07T17:11:03.563Z,2.83
2018-05-07T17:13:37.350Z,2.90
2018-05-07T17:16:11.190Z,2.47
2018-05-07T17:18:44.790Z,2.80
2018-05-07T17:21:18.351Z,2.90
2018-05-07T17:23:51.975Z,3.20
2018-05-07T17:26:25.779Z,2.87
2018-05-07T17:28:59.694Z,2.70
2018-05-07T17:31:33.962Z,2.67
2018-05-07T17:34:08.531Z,2.80
2018-05-07T17:36:42.199Z,2.80
2018-05-07T17:39:15.774Z,3.07
2018-05-07T17:41:49.377Z,6.83
2018-05-07T17:44:35.019Z,4.43
2018-05-07T17:47:22.094Z,2.93
2018-05-07T17:49:55.678Z,3.20
2018-05-07T17:52:30.274Z,3.20
2018-05-07T17:55:03.890Z,3.20
2018-05-07T17:57:38.481Z,2.83
2018-05-07T18:00:12.084Z,2.60
2018-05-07T18:02:45.686Z,2.70
2018-05-07T18:05:19.191Z,2.70
2018-05-07T18:07:52.679Z,2.60
2018-05-07T18:10:26.746Z,2.90
2018-05-07T18:13:00.366Z,2.83
2018-05-07T18:15:34.031Z,2.80
2018-05-07T18:18:07.791Z,3.17
2018-05-07T18:20:42.105Z,2.70
2018-05-07T18:23:15.611Z,2.70
2018-05-07T18:25:49.491Z,2.77
2018-05-07T18:28:23.324Z,2.60
2018-05-07T18:30:57.132Z,2.73
2018-05-07T18:33:30.768Z,2.67
2018-05-07T18:36:04.334Z,2.77
2018-05-07T18:38:39.016Z,2.80
2018-05-07T18:41:13.453Z,2.50
2018-05-07T18:43:46.953Z,2.47
2018-05-07T18:46:20.624Z,2.47
2018-05-07T18:48:54.172Z,2.90
2018-05-07T18:51:27.838Z,2.77
2018-05-07T18:54:02.504Z,2.57
2018-05-07T18:56:36.050Z,2.57
2018-05-07T18:59:09.934Z,2.70
2018-05-07T19:01:43.654Z,2.43
2018-05-07T19:04:17.255Z,2.60
2018-05-07T19:06:51.696Z,2.83
2018-05-07T19:09:25.522Z,2.60
2018-05-07T19:12:00.564Z,2.60
2018-05-07T19:14:34.168Z,2.77
2018-05-07T19:17:08.426Z,2.30
2018-05-07T19:19:42.642Z,2.90
2018-05-07T19:22:16.477Z,2.40
2018-05-07T19:24:50.171Z,2.60
2018-05-07T19:27:24.388Z,2.80
2018-05-07T19:29:57.999Z,2.77
2018-05-07T19:32:31.415Z,3.10
2018-05-07T19:35:05.726Z,2.80
2018-05-07T19:37:39.165Z,2.73
2018-05-07T19:40:13.406Z,2.57
2018-05-07T19:42:47.951Z,2.70
2018-05-07T19:45:22.510Z,2.60
2018-05-07T19:47:56.439Z,3.07
2018-05-07T19:50:30.085Z,3.17
2018-05-07T19:53:04.856Z,2.80
2018-05-07T19:55:39.291Z,2.70
2018-05-07T19:58:13.004Z,2.90
2018-05-07T20:00:48.237Z,2.70
2018-05-07T20:03:21.965Z,3.00
2018-05-07T20:05:56.486Z,2.80
2018-05-07T20:08:30.986Z,2.77
2018-05-07T20:11:05.515Z,3.00
2018-05-07T20:13:39.211Z,3.03
2018-05-07T20:16:12.870Z,3.00
2018-05-07T20:18:46.312Z,3.30
2018-05-07T20:21:19.913Z,3.47
2018-05-07T20:23:53.594Z,2.70
2018-05-07T20:26:27.568Z,3.07
2018-05-07T20:29:02.166Z,3.20
2018-05-07T20:31:37.163Z,2.77
2018-05-07T20:34:10.960Z,2.80
2018-05-07T20:36:44.482Z,3.10
2018-05-07T20:39:18.128Z,3.30
2018-05-07T20:41:51.728Z,3.13
2018-05-07T20:44:25.419Z,2.90
2018-05-07T20:46:59.997Z,2.90
2018-05-07T20:49:35.522Z,3.27
2018-05-07T20:52:09.111Z,2.90
2018-05-07T20:54:42.650Z,3.43
2018-05-07T20:57:16.247Z,3.40
2018-05-07T20:59:49.951Z,3.53
2018-05-07T21:02:23.691Z,3.17
2018-05-07T21:04:57.398Z,3.57
2018-05-07T21:07:30.972Z,4.03
2018-05-07T21:10:04.709Z,3.70
2018-05-07T21:12:38.362Z,3.70
2018-05-07T21:15:12.681Z,3.67
2018-05-07T21:17:46.265Z,3.40
2018-05-07T21:20:19.791Z,3.50
2018-05-07T21:22:53.391Z,3.50
2018-05-07T21:25:27.362Z,3.30
2018-05-07T21:28:00.958Z,3.87
2018-05-07T21:30:35.975Z,3.70
2018-05-07T21:33:09.599Z,3.70
2018-05-07T21:35:44.083Z,3.73
2018-05-07T21:38:18.371Z,3.93
2018-05-07T21:40:51.951Z,3.53
2018-05-07T21:43:25.757Z,3.53
2018-05-07T21:46:00.271Z,3.53
2018-05-07T21:48:33.961Z,3.20
2018-05-07T21:51:07.475Z,3.70
2018-05-07T21:53:41.991Z,3.57
2018-05-07T21:56:15.933Z,3.70
2018-05-07T21:58:49.514Z,3.77
2018-05-07T22:01:23.196Z,3.63
2018-05-07T22:03:57.522Z,3.80
2018-05-07T22:06:32.031Z,3.80
2018-05-07T22:09:06.366Z,4.17
2018-05-07T22:11:40.063Z,3.50
2018-05-07T22:14:13.700Z,4.00
2018-05-07T22:16:47.226Z,3.50
2018-05-07T22:19:21.681Z,3.43
2018-05-07T22:21:56.400Z,3.70
2018-05-07T22:24:30.255Z,3.83
2018-05-07T22:27:04.246Z,3.80
2018-05-07T22:29:38.657Z,3.80
2018-05-07T22:32:12.391Z,3.60
2018-05-07T22:34:46.118Z,4.07
2018-05-07T22:37:20.532Z,3.80
2018-05-07T22:39:54.082Z,4.20
2018-05-07T22:42:27.622Z,3.77
2018-05-07T22:45:01.243Z,3.67
2018-05-07T22:47:34.999Z,4.27
2018-05-07T22:50:09.540Z,4.07
2018-05-07T22:52:43.226Z,4.63
2018-05-07T22:55:20.568Z,5.50
2018-05-07T22:57:54.216Z,5.30
2018-05-07T23:00:27.926Z,4.70
2018-05-07T23:03:01.492Z,4.43
2018-05-07T23:05:35.815Z,3.87
2018-05-07T23:08:09.291Z,4.40
2018-05-07T23:10:42.811Z,4.53
2018-05-07T23:13:16.309Z,4.90
2018-05-07T23:15:49.895Z,4.80
2018-05-07T23:18:23.629Z,4.60
2018-05-07T23:20:57.378Z,4.40
2018-05-07T23:23:31.942Z,4.93
2018-05-07T23:26:06.350Z,4.70
2018-05-07T23:28:40.808Z,4.70
2018-05-07T23:31:15.298Z,4.90
2018-05-07T23:33:49.606Z,4.80
2018-05-07T23:36:24.223Z,5.10
2018-05-07T23:38:57.721Z,4.67
2018-05-07T23:41:32.265Z,4.97
2018-05-07T23:44:06.688Z,4.73
2018-05-07T23:46:41.194Z,4.67
2018-05-07T23:49:15.071Z,4.37
2018-05-07T23:51:48.760Z,4.67
2018-05-07T23:54:22.452Z,4.70
2018-05-07T23:56:56.107Z,4.47
2018-05-07T23:59:30.716Z,5.23
